createdAt,value
2022-08-21T00:00:07.906Z,15.43
2022-08-21T00:02:34.372Z,15.32
2022-08-21T00:05:00.850Z,15.12
2022-08-21T00:07:27.455Z,14.99
2022-08-21T00:09:53.818Z,14.94
2022-08-21T00:12:20.343Z,15.03
2022-08-21T00:14:46.774Z,15.09
2022-08-21T00:17:13.136Z,15.12
2022-08-21T00:19:39.497Z,15.09
2022-08-21T00:22:05.874Z,15.10
2022-08-21T00:24:32.263Z,15.14
2022-08-21T00:26:59.498Z,15.13
2022-08-21T00:29:25.902Z,15.16
2022-08-21T00:31:52.343Z,15.19
2022-08-21T00:34:18.711Z,15.28
2022-08-21T00:36:45.074Z,15.41
2022-08-21T00:39:11.433Z,15.33
2022-08-21T00:41:39.015Z,15.47
2022-08-21T00:44:08.943Z,15.79
2022-08-21T00:46:35.343Z,15.87
2022-08-21T00:49:01.729Z,15.97
2022-08-21T00:51:38.444Z,15.95
2022-08-21T00:54:05.080Z,15.84
2022-08-21T00:56:31.456Z,15.69
2022-08-21T00:58:57.814Z,15.78
2022-08-21T01:01:24.236Z,15.85
2022-08-21T01:03:50.633Z,15.76
2022-08-21T01:06:17.635Z,15.66
2022-08-21T01:08:47.071Z,15.74
2022-08-21T01:11:13.912Z,15.81
2022-08-21T01:13:46.709Z,15.84
2022-08-21T01:16:13.363Z,15.83
2022-08-21T01:18:39.754Z,15.82
2022-08-21T01:21:07.261Z,15.69
2022-08-21T01:23:34.179Z,15.64
2022-08-21T01:28:49.688Z,15.33
2022-08-21T01:31:16.346Z,15.26
2022-08-21T01:33:43.323Z,15.20
2022-08-21T01:36:09.692Z,15.21
2022-08-21T01:38:36.085Z,15.16
2022-08-21T01:41:02.480Z,15.17
2022-08-21T01:43:39.044Z,15.07
2022-08-21T01:46:06.298Z,14.97
2022-08-21T01:48:32.679Z,15.02
2022-08-21T01:50:59.048Z,15.06
2022-08-21T01:53:33.381Z,15.02
2022-08-21T01:56:00.127Z,14.92
2022-08-21T01:58:26.478Z,14.83
2022-08-21T02:00:52.882Z,14.88
2022-08-21T02:03:25.841Z,14.78
2022-08-21T02:05:57.651Z,14.80
2022-08-21T02:08:24.159Z,14.86
2022-08-21T02:10:50.979Z,14.93
2022-08-21T02:13:17.586Z,14.81
2022-08-21T02:15:44.199Z,14.85
2022-08-21T02:18:10.542Z,14.74
2022-08-21T02:20:37.949Z,14.72
2022-08-21T02:23:05.034Z,14.77
2022-08-21T02:25:31.460Z,14.68
2022-08-21T02:27:58.051Z,14.68
2022-08-21T02:30:25.377Z,14.61
2022-08-21T02:32:51.769Z,14.69
2022-08-21T02:35:19.342Z,14.58
2022-08-21T02:37:46.429Z,14.44
2022-08-21T02:40:12.845Z,14.42
2022-08-21T02:42:40.869Z,14.27
2022-08-21T02:45:07.581Z,14.09
2022-08-21T02:47:33.925Z,14.02
2022-08-21T02:50:00.300Z,14.05
2022-08-21T02:52:26.650Z,14.34
2022-08-21T02:54:53.315Z,14.32
2022-08-21T02:57:19.668Z,14.51
2022-08-21T02:59:46.075Z,14.56
2022-08-21T03:02:12.466Z,14.64
2022-08-21T03:04:40.611Z,14.76
2022-08-21T03:07:11.048Z,14.87
2022-08-21T03:09:38.182Z,14.96
2022-08-21T03:12:11.957Z,15.11
2022-08-21T03:14:39.456Z,15.22
2022-08-21T03:17:05.891Z,15.30
2022-08-21T03:19:32.264Z,15.26
2022-08-21T03:21:58.619Z,15.42
2022-08-21T03:24:25.360Z,15.51
2022-08-21T03:26:51.754Z,15.40
2022-08-21T03:29:18.126Z,15.36
2022-08-21T03:31:44.478Z,15.24
2022-08-21T03:34:11.102Z,15.23
2022-08-21T03:36:37.454Z,15.28
2022-08-21T03:39:03.830Z,15.26
2022-08-21T03:41:30.187Z,15.45
2022-08-21T03:43:56.581Z,15.66
2022-08-21T03:46:23.210Z,15.40
2022-08-21T03:48:49.760Z,15.35
2022-08-21T03:51:16.475Z,15.15
2022-08-21T03:53:42.833Z,15.12
2022-08-21T03:56:09.193Z,15.08
2022-08-21T03:58:35.538Z,14.89
2022-08-21T04:01:02.021Z,14.98
2022-08-21T04:03:28.367Z,14.82
2022-08-21T04:05:55.054Z,14.72
2022-08-21T04:08:21.451Z,14.76
2022-08-21T04:10:48.561Z,14.64
2022-08-21T04:13:15.805Z,14.61
2022-08-21T04:15:42.150Z,14.54
2022-08-21T04:18:09.406Z,14.47
2022-08-21T04:20:35.764Z,14.52
2022-08-21T04:23:02.605Z,14.78
2022-08-21T04:25:29.493Z,14.77
2022-08-21T04:27:55.847Z,14.83
2022-08-21T04:30:28.032Z,15.14
2022-08-21T04:32:55.247Z,14.94
2022-08-21T04:35:22.556Z,14.86
2022-08-21T04:37:49.151Z,14.80
2022-08-21T04:40:16.181Z,14.75
2022-08-21T04:42:45.295Z,14.76
2022-08-21T04:45:25.611Z,14.77
2022-08-21T04:47:53.497Z,15.00
2022-08-21T04:50:20.410Z,15.13
2022-08-21T04:52:46.763Z,15.24
2022-08-21T04:55:13.409Z,15.29
2022-08-21T04:57:48.508Z,15.31
2022-08-21T05:00:15.799Z,15.40
2022-08-21T05:02:42.231Z,15.65
2022-08-21T05:05:08.599Z,15.70
2022-08-21T05:07:41.935Z,15.65
2022-08-21T05:10:10.935Z,15.78
2022-08-21T05:12:39.050Z,15.87
2022-08-21T05:15:05.489Z,15.96
2022-08-21T05:17:31.843Z,15.91
2022-08-21T05:19:58.227Z,15.88
2022-08-21T05:22:25.268Z,15.97
2022-08-21T05:24:51.830Z,16.02
2022-08-21T05:27:18.188Z,16.10
2022-08-21T05:29:44.906Z,16.22
2022-08-21T05:32:11.632Z,16.25
2022-08-21T05:34:38.010Z,16.30
2022-08-21T05:37:07.612Z,16.33
2022-08-21T05:40:04.999Z,16.30
2022-08-21T05:42:20.518Z,16.34
2022-08-21T05:44:47.167Z,16.46
2022-08-21T05:47:15.785Z,16.60
2022-08-21T05:49:42.158Z,16.57
2022-08-21T05:52:08.525Z,16.50
2022-08-21T05:54:35.626Z,16.42
2022-08-21T05:57:01.974Z,16.32
2022-08-21T05:59:28.733Z,16.22
2022-08-21T06:01:55.184Z,16.17
2022-08-21T06:04:21.606Z,16.11
2022-08-21T06:06:48.598Z,16.11
2022-08-21T06:09:14.981Z,16.11
2022-08-21T06:11:41.396Z,16.13
2022-08-21T06:14:08.641Z,16.41
2022-08-21T06:16:35.006Z,16.69
2022-08-21T06:19:03.115Z,17.07
2022-08-21T06:21:29.892Z,17.36
2022-08-21T06:23:56.618Z,17.61
2022-08-21T06:26:23.190Z,17.90
2022-08-21T06:28:49.534Z,18.16
2022-08-21T06:31:19.347Z,18.05
2022-08-21T06:33:45.890Z,18.07
2022-08-21T06:36:12.371Z,17.81
2022-08-21T06:38:38.760Z,17.95
2022-08-21T06:41:05.691Z,18.18
2022-08-21T06:43:39.354Z,18.00
2022-08-21T06:46:06.341Z,18.16
2022-08-21T06:48:34.259Z,18.28
2022-08-21T06:51:01.593Z,18.51
2022-08-21T06:53:28.245Z,18.26
2022-08-21T06:55:54.654Z,18.29
2022-08-21T06:58:21.030Z,18.35
2022-08-21T07:00:48.114Z,18.45
2022-08-21T07:03:20.602Z,18.59
2022-08-21T07:05:47.055Z,18.74
2022-08-21T07:08:13.425Z,18.50
2022-08-21T07:10:39.823Z,18.78
2022-08-21T07:13:07.122Z,19.18
2022-08-21T07:15:33.900Z,19.23
2022-08-21T07:18:00.607Z,19.48
2022-08-21T07:20:30.392Z,19.71
2022-08-21T07:22:57.903Z,19.69
2022-08-21T07:25:24.517Z,19.66
2022-08-21T07:27:50.954Z,20.01
2022-08-21T07:30:17.375Z,20.28
2022-08-21T07:32:43.765Z,20.42
2022-08-21T07:35:10.159Z,20.43
2022-08-21T07:37:36.517Z,20.48
2022-08-21T07:40:02.998Z,20.10
2022-08-21T07:42:29.391Z,20.21
2022-08-21T07:44:56.538Z,20.53
2022-08-21T07:47:40.498Z,20.89
2022-08-21T07:50:09.181Z,21.01
2022-08-21T07:52:35.613Z,20.59
2022-08-21T07:55:06.097Z,20.84
2022-08-21T07:57:33.275Z,21.23
2022-08-21T07:59:59.792Z,21.24
2022-08-21T08:02:26.647Z,20.88
2022-08-21T08:04:53.404Z,20.96
2022-08-21T08:07:19.831Z,20.88
2022-08-21T08:09:46.671Z,21.18
2022-08-21T08:12:13.084Z,21.21
2022-08-21T08:14:39.458Z,21.57
2022-08-21T08:17:05.883Z,21.48
2022-08-21T08:19:32.533Z,21.71
2022-08-21T08:21:59.039Z,21.26
2022-08-21T08:24:25.441Z,21.18
2022-08-21T08:26:53.993Z,21.18
2022-08-21T08:29:21.398Z,21.22
2022-08-21T08:31:47.789Z,21.23
2022-08-21T08:34:25.173Z,21.28
2022-08-21T08:36:52.236Z,21.47
2022-08-21T08:39:26.953Z,21.81
2022-08-21T08:41:58.764Z,21.99
2022-08-21T08:44:25.275Z,22.22
2022-08-21T08:46:57.536Z,21.64
2022-08-21T08:49:25.206Z,21.83
2022-08-21T08:52:01.348Z,21.84
2022-08-21T08:54:35.812Z,22.08
2022-08-21T08:57:02.586Z,22.25
2022-08-21T08:59:33.559Z,22.09
2022-08-21T09:02:00.167Z,22.00
2022-08-21T09:04:29.591Z,21.86
2022-08-21T09:07:14.870Z,21.61
2022-08-21T09:09:41.282Z,22.17
2022-08-21T09:12:19.829Z,22.20
2022-08-21T09:14:48.447Z,22.32
2022-08-21T09:17:25.882Z,22.39
2022-08-21T09:19:58.531Z,22.14
2022-08-21T09:22:25.541Z,22.10
2022-08-21T09:24:58.721Z,22.37
2022-08-21T09:27:26.521Z,22.06
2022-08-21T09:29:53.778Z,22.47
2022-08-21T09:32:37.010Z,22.84
2022-08-21T09:35:14.931Z,22.72
2022-08-21T09:37:58.935Z,22.92
2022-08-21T09:40:32.727Z,23.30
2022-08-21T09:43:19.471Z,23.86
2022-08-21T09:45:46.177Z,24.22
2022-08-21T09:48:15.514Z,24.18
2022-08-21T09:50:42.740Z,23.35
2022-08-21T09:53:16.636Z,23.48
2022-08-21T09:56:12.070Z,23.75
2022-08-21T09:58:39.111Z,23.85
2022-08-21T10:01:06.506Z,23.50
2022-08-21T10:03:32.936Z,23.54
2022-08-21T10:06:00.278Z,23.64
2022-08-21T10:08:27.764Z,23.20
2022-08-21T10:11:08.362Z,23.61
2022-08-21T10:13:34.718Z,24.14
2022-08-21T10:16:11.376Z,24.64
2022-08-21T10:18:42.324Z,24.05
2022-08-21T10:21:25.051Z,24.22
2022-08-21T10:23:51.433Z,24.01
2022-08-21T10:26:21.678Z,23.87
2022-08-21T10:28:48.080Z,23.95
2022-08-21T10:31:33.170Z,23.70
2022-08-21T10:34:07.674Z,23.98
2022-08-21T10:36:46.245Z,24.15
2022-08-21T10:39:35.025Z,24.25
2022-08-21T10:42:02.397Z,24.14
2022-08-21T10:44:36.032Z,24.06
2022-08-21T10:47:11.622Z,24.83
2022-08-21T10:49:37.977Z,24.26
2022-08-21T10:52:12.518Z,24.51
2022-08-21T10:54:58.740Z,24.87
2022-08-21T10:57:32.095Z,24.76
2022-08-21T11:00:05.113Z,25.02
2022-08-21T11:02:33.178Z,24.45
2022-08-21T11:05:04.010Z,24.80
2022-08-21T11:07:34.733Z,25.19
2022-08-21T11:10:05.067Z,25.25
2022-08-21T11:12:45.271Z,25.33
2022-08-21T11:15:28.934Z,25.77
2022-08-21T11:18:11.734Z,25.92
2022-08-21T11:20:44.207Z,26.04
2022-08-21T11:23:25.221Z,25.60
2022-08-21T11:25:56.384Z,26.54
2022-08-21T11:28:24.565Z,26.17
2022-08-21T11:30:57.128Z,26.32
2022-08-21T11:33:23.455Z,25.76
2022-08-21T11:35:55.224Z,25.59
2022-08-21T11:38:41.202Z,25.30
2022-08-21T11:41:13.732Z,26.42
2022-08-21T11:43:47.277Z,26.00
2022-08-21T11:46:35.235Z,25.71
2022-08-21T11:49:10.882Z,25.81
2022-08-21T11:51:43.680Z,26.28
2022-08-21T11:54:23.155Z,25.51
2022-08-21T11:56:51.726Z,25.71
2022-08-21T11:59:21.661Z,25.35
2022-08-21T12:01:48.131Z,25.19
2022-08-21T12:04:19.592Z,25.63
2022-08-21T12:06:46.022Z,25.97
2022-08-21T12:09:29.660Z,25.97
2022-08-21T12:12:12.444Z,25.87
2022-08-21T12:14:38.916Z,26.36
2022-08-21T12:17:06.019Z,25.35
2022-08-21T12:19:36.064Z,25.08
2022-08-21T12:22:02.528Z,25.52
2022-08-21T12:24:28.880Z,26.08
2022-08-21T12:26:56.396Z,26.31
2022-08-21T12:29:25.036Z,26.37
2022-08-21T12:31:51.409Z,25.86
2022-08-21T12:34:17.831Z,25.75
2022-08-21T12:37:04.573Z,26.58
2022-08-21T12:39:32.068Z,26.88
2022-08-21T12:42:06.859Z,26.96
2022-08-21T12:44:35.656Z,26.84
2022-08-21T12:47:06.462Z,27.21
2022-08-21T12:49:34.423Z,27.20
2022-08-21T12:52:27.164Z,27.28
2022-08-21T12:54:53.612Z,26.60
2022-08-21T12:57:21.360Z,26.48
2022-08-21T12:59:55.230Z,26.20
2022-08-21T13:02:22.980Z,25.71
2022-08-21T13:04:49.485Z,25.38
2022-08-21T13:07:26.676Z,25.23
2022-08-21T13:09:54.638Z,24.43
2022-08-21T13:12:27.720Z,24.83
2022-08-21T13:14:59.490Z,26.03
2022-08-21T13:17:31.023Z,25.86
2022-08-21T13:19:58.598Z,26.01
2022-08-21T13:22:33.200Z,26.67
2022-08-21T13:25:01.659Z,26.36
2022-08-21T13:27:33.378Z,26.82
2022-08-21T13:30:09.069Z,27.41
2022-08-21T13:32:35.864Z,28.12
2022-08-21T13:35:08.751Z,28.38
2022-08-21T13:37:35.891Z,28.21
2022-08-21T13:40:02.479Z,27.84
2022-08-21T13:42:28.949Z,28.23
2022-08-21T13:44:55.365Z,27.14
2022-08-21T13:47:21.788Z,27.11
2022-08-21T13:49:48.538Z,26.95
2022-08-21T13:52:22.101Z,27.51
2022-08-21T13:54:58.784Z,27.48
2022-08-21T13:57:26.629Z,26.90
2022-08-21T13:59:53.119Z,26.15
2022-08-21T14:02:21.129Z,26.00
2022-08-21T14:04:53.387Z,26.14
2022-08-21T14:07:21.052Z,26.52
2022-08-21T14:09:47.693Z,26.99
2022-08-21T14:12:18.051Z,27.48
2022-08-21T14:14:50.094Z,26.01
2022-08-21T14:17:29.182Z,26.89
2022-08-21T14:20:00.244Z,26.61
2022-08-21T14:22:50.191Z,26.27
2022-08-21T14:25:19.170Z,25.83
2022-08-21T14:27:50.105Z,25.84
2022-08-21T14:30:19.617Z,26.05
2022-08-21T14:32:46.143Z,25.73
2022-08-21T14:35:13.318Z,25.39
2022-08-21T14:37:42.571Z,25.71
2022-08-21T14:40:09.795Z,26.08
2022-08-21T14:42:36.678Z,26.25
2022-08-21T14:45:17.011Z,25.66
2022-08-21T14:47:44.740Z,25.26
2022-08-21T14:50:11.645Z,25.26
2022-08-21T14:52:38.267Z,25.33
2022-08-21T14:55:05.400Z,25.24
2022-08-21T14:57:33.951Z,25.61
2022-08-21T15:00:02.078Z,25.33
2022-08-21T15:02:28.779Z,25.28
2022-08-21T15:04:55.188Z,25.45
2022-08-21T15:07:21.634Z,25.34
2022-08-21T15:09:48.131Z,25.00
2022-08-21T15:12:14.543Z,24.91
2022-08-21T15:14:43.943Z,24.81
2022-08-21T15:17:10.544Z,24.79
2022-08-21T15:19:37.065Z,24.62
2022-08-21T15:22:03.677Z,24.24
2022-08-21T15:24:30.257Z,24.31
2022-08-21T15:26:57.017Z,24.29
2022-08-21T15:29:23.517Z,24.10
2022-08-21T15:32:00.661Z,24.32
2022-08-21T15:34:28.200Z,24.28
2022-08-21T15:36:56.269Z,24.17
2022-08-21T15:39:24.693Z,24.01
2022-08-21T15:41:51.534Z,23.93
2022-08-21T15:44:17.940Z,23.84
2022-08-21T15:46:45.785Z,23.90
2022-08-21T15:49:12.262Z,24.00
2022-08-21T15:51:43.496Z,24.04
2022-08-21T15:54:11.150Z,23.76
2022-08-21T15:56:38.155Z,23.62
2022-08-21T15:59:08.917Z,23.62
2022-08-21T16:01:44.308Z,23.64
2022-08-21T16:04:11.678Z,23.45
2022-08-21T16:06:54.102Z,23.27
2022-08-21T16:09:23.303Z,22.97
2022-08-21T16:11:49.756Z,23.01
2022-08-21T16:14:16.237Z,23.24
2022-08-21T16:16:42.715Z,23.02
2022-08-21T16:19:09.277Z,22.90
2022-08-21T16:21:35.686Z,22.95
2022-08-21T16:24:02.124Z,22.83
2022-08-21T16:26:28.848Z,22.78
2022-08-21T16:28:56.136Z,22.64
2022-08-21T16:31:24.417Z,22.70
2022-08-21T16:33:51.530Z,22.59
2022-08-21T16:36:22.443Z,22.58
2022-08-21T16:38:48.939Z,22.60
2022-08-21T16:41:17.323Z,22.70
2022-08-21T16:43:43.729Z,22.74
2022-08-21T16:46:11.341Z,22.64
2022-08-21T16:48:38.164Z,22.42
2022-08-21T16:51:05.025Z,22.44
2022-08-21T16:53:31.428Z,22.50
2022-08-21T16:55:57.835Z,22.52
2022-08-21T16:58:25.750Z,22.55
2022-08-21T17:00:52.228Z,22.30
2022-08-21T17:03:21.291Z,22.21
2022-08-21T17:05:47.965Z,21.92
2022-08-21T17:08:14.435Z,21.63
2022-08-21T17:10:42.925Z,21.45
2022-08-21T17:13:09.891Z,21.51
2022-08-21T17:15:36.940Z,21.57
2022-08-21T17:18:04.148Z,21.31
2022-08-21T17:20:31.399Z,21.30
2022-08-21T17:22:57.923Z,21.51
2022-08-21T17:25:24.661Z,21.22
2022-08-21T17:27:51.067Z,20.82
2022-08-21T17:30:17.537Z,20.42
2022-08-21T17:32:44.525Z,20.26
2022-08-21T17:35:10.967Z,20.06
2022-08-21T17:37:37.436Z,19.97
2022-08-21T17:40:05.798Z,19.84
2022-08-21T17:42:32.468Z,19.79
2022-08-21T17:44:58.913Z,19.80
2022-08-21T17:47:25.495Z,19.85
2022-08-21T17:49:51.949Z,19.68
2022-08-21T17:52:18.366Z,19.59
2022-08-21T17:54:44.768Z,19.63
2022-08-21T17:57:15.054Z,19.55
2022-08-21T17:59:41.758Z,19.53
2022-08-21T18:02:09.937Z,19.28
2022-08-21T18:04:46.445Z,19.10
2022-08-21T18:07:32.409Z,19.11
2022-08-21T18:10:00.034Z,19.09
2022-08-21T18:12:26.413Z,18.90
2022-08-21T18:14:52.806Z,18.86
2022-08-21T18:17:20.407Z,18.86
2022-08-21T18:19:49.254Z,18.71
2022-08-21T18:22:15.863Z,18.56
2022-08-21T18:24:43.607Z,18.52
2022-08-21T18:27:10.104Z,18.38
2022-08-21T18:29:47.253Z,18.51
2022-08-21T18:32:25.742Z,18.40
2022-08-21T18:34:58.524Z,18.26
2022-08-21T18:37:24.921Z,18.27
2022-08-21T18:39:51.381Z,18.18
2022-08-21T18:42:18.470Z,18.13
2022-08-21T18:44:45.558Z,18.25
2022-08-21T18:47:21.919Z,18.20
2022-08-21T18:49:48.356Z,18.13
2022-08-21T18:55:05.963Z,17.96
2022-08-21T18:57:39.912Z,17.94
2022-08-21T19:00:13.409Z,17.87
2022-08-21T19:02:40.680Z,17.87
2022-08-21T19:05:10.840Z,17.74
2022-08-21T19:07:37.284Z,17.58
2022-08-21T19:10:27.780Z,17.80
2022-08-21T19:12:51.088Z,17.64
2022-08-21T19:15:18.275Z,17.64
2022-08-21T19:17:45.826Z,17.61
2022-08-21T19:20:25.772Z,17.55
2022-08-21T19:23:03.265Z,17.50
2022-08-21T19:25:33.050Z,17.43
2022-08-21T19:28:18.130Z,17.44
2022-08-21T19:30:48.431Z,17.29
2022-08-21T19:36:02.755Z,17.17
2022-08-21T19:38:29.386Z,17.11
2022-08-21T19:40:55.755Z,17.11
2022-08-21T19:43:22.428Z,17.11
2022-08-21T19:45:49.832Z,17.08
2022-08-21T19:51:04.902Z,17.04
2022-08-21T19:53:31.354Z,17.07
2022-08-21T19:55:57.782Z,17.04
2022-08-21T19:58:27.753Z,17.01
2022-08-21T20:00:54.129Z,17.11
2022-08-21T20:03:21.291Z,17.02
2022-08-21T20:05:47.845Z,16.94
2022-08-21T20:08:20.187Z,16.88
2022-08-21T20:10:47.106Z,16.90
2022-08-21T20:13:17.548Z,16.73
2022-08-21T20:15:45.139Z,16.79
2022-08-21T20:18:11.528Z,16.85
2022-08-21T20:20:38.521Z,16.79
2022-08-21T20:23:10.825Z,16.75
2022-08-21T20:25:37.517Z,16.74
2022-08-21T20:28:05.391Z,16.77
2022-08-21T20:30:31.786Z,16.81
2022-08-21T20:32:58.441Z,16.71
2022-08-21T20:35:24.978Z,16.62
2022-08-21T20:37:58.642Z,16.68
2022-08-21T20:40:28.050Z,16.61
2022-08-21T20:43:01.617Z,16.69
2022-08-21T20:45:31.769Z,16.69
2022-08-21T20:48:01.298Z,16.77
2022-08-21T20:50:28.987Z,16.69
2022-08-21T20:52:57.791Z,16.55
2022-08-21T20:55:29.186Z,16.51
2022-08-21T20:57:57.161Z,16.55
2022-08-21T21:00:26.106Z,16.57
2022-08-21T21:03:06.455Z,16.46
2022-08-21T21:05:33.854Z,16.52
2022-08-21T21:08:06.465Z,16.43
2022-08-21T21:10:35.823Z,16.42
2022-08-21T21:13:07.953Z,16.50
2022-08-21T21:15:34.383Z,16.42
2022-08-21T21:18:22.988Z,16.51
2022-08-21T21:20:57.586Z,16.46
2022-08-21T21:23:30.409Z,16.42
2022-08-21T21:25:59.217Z,16.46
2022-08-21T21:28:27.256Z,16.29
2022-08-21T21:30:57.948Z,16.23
2022-08-21T21:33:24.469Z,16.33
2022-08-21T21:35:53.763Z,16.40
2022-08-21T21:38:26.160Z,16.32
2022-08-21T21:41:02.147Z,16.43
2022-08-21T21:43:39.018Z,16.31
2022-08-21T21:46:05.368Z,16.28
2022-08-21T21:48:41.064Z,16.18
2022-08-21T21:51:12.040Z,16.20
2022-08-21T21:53:42.478Z,16.00
2022-08-21T21:56:12.284Z,15.97
2022-08-21T21:59:08.344Z,16.10
2022-08-21T22:01:48.459Z,16.17
2022-08-21T22:04:18.414Z,16.20
2022-08-21T22:07:04.505Z,16.20
2022-08-21T22:09:44.232Z,16.20
2022-08-21T22:12:26.178Z,16.04
2022-08-21T22:14:52.746Z,15.98
2022-08-21T22:17:36.382Z,15.92
2022-08-21T22:20:08.643Z,16.01
2022-08-21T22:22:38.990Z,15.84
2022-08-21T22:25:15.488Z,15.76
2022-08-21T22:27:41.898Z,15.75
2022-08-21T22:30:09.393Z,15.80
2022-08-21T22:32:39.743Z,15.82
2022-08-21T22:35:15.463Z,15.82
2022-08-21T22:37:44.326Z,15.76
2022-08-21T22:40:11.550Z,15.81
2022-08-21T22:42:37.960Z,15.77
2022-08-21T22:45:12.047Z,15.59
2022-08-21T22:47:42.975Z,15.76
2022-08-21T22:50:28.844Z,15.64
2022-08-21T22:52:58.552Z,15.68
2022-08-21T22:55:35.939Z,15.68
2022-08-21T22:58:13.469Z,15.81
2022-08-21T23:00:42.871Z,15.71
2022-08-21T23:03:16.475Z,15.68
2022-08-21T23:05:44.311Z,15.77
2022-08-21T23:08:29.475Z,15.64
2022-08-21T23:10:58.141Z,15.65
2022-08-21T23:13:24.524Z,15.68
2022-08-21T23:16:09.865Z,15.65
2022-08-21T23:19:00.260Z,15.61
2022-08-21T23:21:26.651Z,15.55
2022-08-21T23:24:19.415Z,15.56
2022-08-21T23:26:54.181Z,15.55
2022-08-21T23:29:27.013Z,15.62
2022-08-21T23:32:00.334Z,15.53
2022-08-21T23:34:38.065Z,15.43
2022-08-21T23:40:28.489Z,15.25
2022-08-21T23:46:10.146Z,15.32
2022-08-21T23:48:42.335Z,15.40
2022-08-21T23:51:15.689Z,15.45
2022-08-21T23:53:50.867Z,15.33
2022-08-21T23:56:36.050Z,15.34
2022-08-21T23:59:03.142Z,15.19
